sensor_id;sensor_type;location;lat;lon;timestamp;P1;durP1;ratioP1;P2;durP2;ratioP2
4011;SDS011;2020;48.682;9.024;2022-08-06T00:01:01;2.00;;;1.90;;
4011;SDS011;2020;48.682;9.024;2022-08-06T00:03:27;2.23;;;2.13;;
4011;SDS011;2020;48.682;9.024;2022-08-06T00:05:53;1.53;;;1.43;;
4011;SDS011;2020;48.682;9.024;2022-08-06T00:08:18;1.30;;;1.30;;
4011;SDS011;2020;48.682;9.024;2022-08-06T00:10:44;1.63;;;1.63;;
4011;SDS011;2020;48.682;9.024;2022-08-06T00:13:09;2.37;;;2.17;;
4011;SDS011;2020;48.682;9.024;2022-08-06T00:15:35;1.87;;;1.70;;
4011;SDS011;2020;48.682;9.024;2022-08-06T00:18:00;2.13;;;1.57;;
4011;SDS011;2020;48.682;9.024;2022-08-06T00:20:25;2.10;;;1.90;;
4011;SDS011;2020;48.682;9.024;2022-08-06T00:22:51;1.80;;;1.70;;
4011;SDS011;2020;48.682;9.024;2022-08-06T00:25:17;1.80;;;1.70;;
4011;SDS011;2020;48.682;9.024;2022-08-06T00:27:42;1.93;;;1.70;;
4011;SDS011;2020;48.682;9.024;2022-08-06T00:30:08;1.80;;;1.80;;
4011;SDS011;2020;48.682;9.024;2022-08-06T00:32:34;4.07;;;1.97;;
4011;SDS011;2020;48.682;9.024;2022-08-06T00:35:00;2.13;;;2.03;;
4011;SDS011;2020;48.682;9.024;2022-08-06T00:37:25;1.93;;;1.83;;
4011;SDS011;2020;48.682;9.024;2022-08-06T00:39:53;1.83;;;1.73;;
4011;SDS011;2020;48.682;9.024;2022-08-06T00:42:19;2.57;;;2.37;;
4011;SDS011;2020;48.682;9.024;2022-08-06T00:44:44;1.60;;;1.60;;
4011;SDS011;2020;48.682;9.024;2022-08-06T00:47:10;1.20;;;1.20;;
4011;SDS011;2020;48.682;9.024;2022-08-06T00:49:35;1.50;;;1.50;;
4011;SDS011;2020;48.682;9.024;2022-08-06T00:52:00;1.50;;;1.50;;
4011;SDS011;2020;48.682;9.024;2022-08-06T00:54:25;2.00;;;1.90;;
4011;SDS011;2020;48.682;9.024;2022-08-06T00:56:51;1.80;;;1.80;;
4011;SDS011;2020;48.682;9.024;2022-08-06T00:59:16;1.80;;;1.70;;
4011;SDS011;2020;48.682;9.024;2022-08-06T01:01:41;1.97;;;1.67;;
4011;SDS011;2020;48.682;9.024;2022-08-06T01:04:07;1.87;;;1.87;;
4011;SDS011;2020;48.682;9.024;2022-08-06T01:06:32;2.30;;;1.70;;
4011;SDS011;2020;48.682;9.024;2022-08-06T01:08:57;1.70;;;1.70;;
4011;SDS011;2020;48.682;9.024;2022-08-06T01:11:23;1.57;;;1.57;;
4011;SDS011;2020;48.682;9.024;2022-08-06T01:13:48;1.80;;;1.80;;
4011;SDS011;2020;48.682;9.024;2022-08-06T01:19:42;1.67;;;1.67;;
4011;SDS011;2020;48.682;9.024;2022-08-06T01:30:01;1.80;;;1.70;;
4011;SDS011;2020;48.682;9.024;2022-08-06T01:32:32;1.63;;;1.60;;
4011;SDS011;2020;48.682;9.024;2022-08-06T01:35:04;2.37;;;2.10;;
4011;SDS011;2020;48.682;9.024;2022-08-06T01:37:35;3.20;;;1.57;;
4011;SDS011;2020;48.682;9.024;2022-08-06T01:40:06;2.50;;;2.30;;
4011;SDS011;2020;48.682;9.024;2022-08-06T01:42:44;2.30;;;2.20;;
4011;SDS011;2020;48.682;9.024;2022-08-06T01:45:14;3.27;;;1.73;;
4011;SDS011;2020;48.682;9.024;2022-08-06T01:47:42;2.00;;;1.90;;
4011;SDS011;2020;48.682;9.024;2022-08-06T01:50:11;1.60;;;1.40;;
4011;SDS011;2020;48.682;9.024;2022-08-06T01:52:39;1.60;;;1.40;;
4011;SDS011;2020;48.682;9.024;2022-08-06T01:55:08;2.10;;;2.00;;
4011;SDS011;2020;48.682;9.024;2022-08-06T01:57:37;2.10;;;2.00;;
4011;SDS011;2020;48.682;9.024;2022-08-06T02:00:10;2.20;;;2.00;;
4011;SDS011;2020;48.682;9.024;2022-08-06T02:02:36;2.97;;;2.10;;
4011;SDS011;2020;48.682;9.024;2022-08-06T02:05:02;1.43;;;1.43;;
4011;SDS011;2020;48.682;9.024;2022-08-06T02:07:32;1.90;;;1.80;;
4011;SDS011;2020;48.682;9.024;2022-08-06T02:10:02;1.40;;;1.40;;
4011;SDS011;2020;48.682;9.024;2022-08-06T02:12:29;1.70;;;1.70;;
4011;SDS011;2020;48.682;9.024;2022-08-06T02:14:58;1.73;;;1.63;;
4011;SDS011;2020;48.682;9.024;2022-08-06T02:17:29;1.57;;;1.53;;
4011;SDS011;2020;48.682;9.024;2022-08-06T02:19:57;1.67;;;1.67;;
4011;SDS011;2020;48.682;9.024;2022-08-06T02:22:26;5.43;;;1.80;;
4011;SDS011;2020;48.682;9.024;2022-08-06T02:24:54;2.30;;;1.80;;
4011;SDS011;2020;48.682;9.024;2022-08-06T02:27:21;2.17;;;2.00;;
4011;SDS011;2020;48.682;9.024;2022-08-06T02:29:50;1.60;;;1.50;;
4011;SDS011;2020;48.682;9.024;2022-08-06T02:32:18;2.50;;;1.63;;
4011;SDS011;2020;48.682;9.024;2022-08-06T02:34:43;1.70;;;1.70;;
4011;SDS011;2020;48.682;9.024;2022-08-06T02:37:11;1.60;;;1.60;;
4011;SDS011;2020;48.682;9.024;2022-08-06T02:39:41;4.17;;;1.70;;
4011;SDS011;2020;48.682;9.024;2022-08-06T02:42:15;1.67;;;1.67;;
4011;SDS011;2020;48.682;9.024;2022-08-06T02:44:45;1.90;;;1.80;;
4011;SDS011;2020;48.682;9.024;2022-08-06T02:47:22;1.63;;;1.57;;
4011;SDS011;2020;48.682;9.024;2022-08-06T02:49:55;1.77;;;1.70;;
4011;SDS011;2020;48.682;9.024;2022-08-06T02:52:33;1.87;;;1.77;;
4011;SDS011;2020;48.682;9.024;2022-08-06T02:57:52;1.90;;;1.73;;
4011;SDS011;2020;48.682;9.024;2022-08-06T03:00:24;1.87;;;1.87;;
4011;SDS011;2020;48.682;9.024;2022-08-06T03:02:55;1.90;;;1.80;;
4011;SDS011;2020;48.682;9.024;2022-08-06T03:05:23;1.63;;;1.53;;
4011;SDS011;2020;48.682;9.024;2022-08-06T03:07:50;1.90;;;1.80;;
4011;SDS011;2020;48.682;9.024;2022-08-06T03:10:20;2.07;;;1.97;;
4011;SDS011;2020;48.682;9.024;2022-08-06T03:12:47;2.40;;;1.73;;
4011;SDS011;2020;48.682;9.024;2022-08-06T03:15:13;2.07;;;1.97;;
4011;SDS011;2020;48.682;9.024;2022-08-06T03:17:42;2.10;;;2.00;;
4011;SDS011;2020;48.682;9.024;2022-08-06T03:20:09;2.40;;;1.93;;
4011;SDS011;2020;48.682;9.024;2022-08-06T03:22:37;1.60;;;1.60;;
4011;SDS011;2020;48.682;9.024;2022-08-06T03:25:06;2.30;;;1.53;;
4011;SDS011;2020;48.682;9.024;2022-08-06T03:27:35;2.63;;;2.43;;
4011;SDS011;2020;48.682;9.024;2022-08-06T03:30:02;2.13;;;1.63;;
4011;SDS011;2020;48.682;9.024;2022-08-06T03:32:28;1.80;;;1.80;;
4011;SDS011;2020;48.682;9.024;2022-08-06T03:34:55;2.00;;;1.80;;
4011;SDS011;2020;48.682;9.024;2022-08-06T03:37:22;1.70;;;1.70;;
4011;SDS011;2020;48.682;9.024;2022-08-06T03:39:48;2.50;;;1.53;;
4011;SDS011;2020;48.682;9.024;2022-08-06T03:42:15;1.87;;;1.77;;
4011;SDS011;2020;48.682;9.024;2022-08-06T03:44:41;1.63;;;1.63;;
4011;SDS011;2020;48.682;9.024;2022-08-06T03:47:09;1.80;;;1.73;;
4011;SDS011;2020;48.682;9.024;2022-08-06T03:49:55;1.67;;;1.67;;
4011;SDS011;2020;48.682;9.024;2022-08-06T03:52:26;1.73;;;1.73;;
4011;SDS011;2020;48.682;9.024;2022-08-06T03:54:55;1.90;;;1.80;;
4011;SDS011;2020;48.682;9.024;2022-08-06T03:57:32;1.73;;;1.73;;
4011;SDS011;2020;48.682;9.024;2022-08-06T04:00:00;6.07;;;2.00;;
4011;SDS011;2020;48.682;9.024;2022-08-06T04:02:28;1.90;;;1.90;;
4011;SDS011;2020;48.682;9.024;2022-08-06T04:05:02;1.70;;;1.70;;
4011;SDS011;2020;48.682;9.024;2022-08-06T04:07:28;2.00;;;2.00;;
4011;SDS011;2020;48.682;9.024;2022-08-06T04:09:55;2.43;;;2.33;;
4011;SDS011;2020;48.682;9.024;2022-08-06T04:12:21;2.23;;;2.17;;
4011;SDS011;2020;48.682;9.024;2022-08-06T04:14:47;2.27;;;2.27;;
4011;SDS011;2020;48.682;9.024;2022-08-06T04:17:13;1.97;;;1.83;;
4011;SDS011;2020;48.682;9.024;2022-08-06T04:19:41;2.60;;;1.60;;
4011;SDS011;2020;48.682;9.024;2022-08-06T04:22:07;1.90;;;1.80;;
4011;SDS011;2020;48.682;9.024;2022-08-06T04:24:33;4.70;;;2.10;;
4011;SDS011;2020;48.682;9.024;2022-08-06T04:27:02;2.10;;;2.10;;
4011;SDS011;2020;48.682;9.024;2022-08-06T04:29:29;2.10;;;2.00;;
4011;SDS011;2020;48.682;9.024;2022-08-06T04:31:57;2.60;;;2.03;;
4011;SDS011;2020;48.682;9.024;2022-08-06T04:34:24;2.30;;;2.10;;
4011;SDS011;2020;48.682;9.024;2022-08-06T04:36:51;1.90;;;1.80;;
4011;SDS011;2020;48.682;9.024;2022-08-06T04:39:17;1.77;;;1.73;;
4011;SDS011;2020;48.682;9.024;2022-08-06T04:41:43;2.50;;;2.30;;
4011;SDS011;2020;48.682;9.024;2022-08-06T04:44:09;3.60;;;2.57;;
4011;SDS011;2020;48.682;9.024;2022-08-06T04:46:36;2.53;;;2.40;;
4011;SDS011;2020;48.682;9.024;2022-08-06T04:49:02;2.80;;;2.00;;
4011;SDS011;2020;48.682;9.024;2022-08-06T04:51:27;2.57;;;2.40;;
4011;SDS011;2020;48.682;9.024;2022-08-06T04:53:53;2.50;;;2.30;;
4011;SDS011;2020;48.682;9.024;2022-08-06T04:56:18;2.00;;;2.00;;
4011;SDS011;2020;48.682;9.024;2022-08-06T04:58:44;2.67;;;2.57;;
4011;SDS011;2020;48.682;9.024;2022-08-06T05:01:09;2.27;;;2.20;;
4011;SDS011;2020;48.682;9.024;2022-08-06T05:03:34;2.67;;;2.47;;
4011;SDS011;2020;48.682;9.024;2022-08-06T05:06:09;1.67;;;1.67;;
4011;SDS011;2020;48.682;9.024;2022-08-06T05:08:43;2.03;;;1.93;;
4011;SDS011;2020;48.682;9.024;2022-08-06T05:13:49;2.30;;;2.17;;
4011;SDS011;2020;48.682;9.024;2022-08-06T05:16:18;1.93;;;1.83;;
4011;SDS011;2020;48.682;9.024;2022-08-06T05:18:49;3.10;;;2.90;;
4011;SDS011;2020;48.682;9.024;2022-08-06T05:21:20;1.90;;;1.80;;
4011;SDS011;2020;48.682;9.024;2022-08-06T05:23:54;1.87;;;1.77;;
4011;SDS011;2020;48.682;9.024;2022-08-06T05:26:20;2.30;;;1.90;;
4011;SDS011;2020;48.682;9.024;2022-08-06T05:28:46;2.60;;;2.10;;
4011;SDS011;2020;48.682;9.024;2022-08-06T05:31:12;2.10;;;2.00;;
4011;SDS011;2020;48.682;9.024;2022-08-06T05:33:38;3.37;;;2.10;;
4011;SDS011;2020;48.682;9.024;2022-08-06T05:36:05;2.40;;;2.20;;
4011;SDS011;2020;48.682;9.024;2022-08-06T05:38:33;2.10;;;2.00;;
4011;SDS011;2020;48.682;9.024;2022-08-06T05:41:00;2.60;;;2.50;;
4011;SDS011;2020;48.682;9.024;2022-08-06T05:43:25;2.00;;;2.00;;
4011;SDS011;2020;48.682;9.024;2022-08-06T05:45:52;2.87;;;2.73;;
4011;SDS011;2020;48.682;9.024;2022-08-06T05:48:20;2.30;;;2.20;;
4011;SDS011;2020;48.682;9.024;2022-08-06T05:50:49;4.13;;;2.00;;
4011;SDS011;2020;48.682;9.024;2022-08-06T05:53:21;7.00;;;2.83;;
4011;SDS011;2020;48.682;9.024;2022-08-06T05:55:54;2.80;;;2.17;;
4011;SDS011;2020;48.682;9.024;2022-08-06T05:58:30;2.30;;;2.10;;
4011;SDS011;2020;48.682;9.024;2022-08-06T06:00:59;2.20;;;2.00;;
4011;SDS011;2020;48.682;9.024;2022-08-06T06:03:26;2.00;;;1.90;;
4011;SDS011;2020;48.682;9.024;2022-08-06T06:05:56;2.80;;;2.70;;
4011;SDS011;2020;48.682;9.024;2022-08-06T06:08:23;2.77;;;2.67;;
4011;SDS011;2020;48.682;9.024;2022-08-06T06:10:49;5.10;;;2.77;;
4011;SDS011;2020;48.682;9.024;2022-08-06T06:13:15;2.30;;;2.20;;
4011;SDS011;2020;48.682;9.024;2022-08-06T06:15:44;2.83;;;2.63;;
4011;SDS011;2020;48.682;9.024;2022-08-06T06:23:52;2.33;;;2.23;;
4011;SDS011;2020;48.682;9.024;2022-08-06T06:26:35;3.47;;;2.70;;
4011;SDS011;2020;48.682;9.024;2022-08-06T06:29:08;2.47;;;2.37;;
4011;SDS011;2020;48.682;9.024;2022-08-06T06:31:44;2.40;;;2.40;;
4011;SDS011;2020;48.682;9.024;2022-08-06T06:34:50;2.67;;;2.43;;
4011;SDS011;2020;48.682;9.024;2022-08-06T06:37:34;2.57;;;2.37;;
4011;SDS011;2020;48.682;9.024;2022-08-06T06:42:40;2.33;;;2.33;;
4011;SDS011;2020;48.682;9.024;2022-08-06T06:45:16;2.50;;;2.20;;
4011;SDS011;2020;48.682;9.024;2022-08-06T06:50:27;2.53;;;2.43;;
4011;SDS011;2020;48.682;9.024;2022-08-06T06:52:57;3.10;;;2.90;;
4011;SDS011;2020;48.682;9.024;2022-08-06T06:55:32;2.57;;;2.47;;
4011;SDS011;2020;48.682;9.024;2022-08-06T06:58:15;2.53;;;2.33;;
4011;SDS011;2020;48.682;9.024;2022-08-06T07:00:51;2.33;;;2.23;;
4011;SDS011;2020;48.682;9.024;2022-08-06T07:03:17;2.50;;;2.40;;
4011;SDS011;2020;48.682;9.024;2022-08-06T07:05:45;3.03;;;2.93;;
4011;SDS011;2020;48.682;9.024;2022-08-06T07:08:12;2.73;;;2.43;;
4011;SDS011;2020;48.682;9.024;2022-08-06T07:10:41;2.70;;;2.60;;
4011;SDS011;2020;48.682;9.024;2022-08-06T07:13:09;2.57;;;2.47;;
4011;SDS011;2020;48.682;9.024;2022-08-06T07:15:37;4.90;;;2.83;;
4011;SDS011;2020;48.682;9.024;2022-08-06T07:18:04;2.40;;;2.40;;
4011;SDS011;2020;48.682;9.024;2022-08-06T07:20:30;3.27;;;2.40;;
4011;SDS011;2020;48.682;9.024;2022-08-06T07:23:00;2.50;;;2.40;;
4011;SDS011;2020;48.682;9.024;2022-08-06T07:25:28;2.47;;;2.37;;
4011;SDS011;2020;48.682;9.024;2022-08-06T07:27:54;5.53;;;2.90;;
4011;SDS011;2020;48.682;9.024;2022-08-06T07:30:19;2.33;;;2.33;;
4011;SDS011;2020;48.682;9.024;2022-08-06T07:32:46;4.30;;;2.23;;
4011;SDS011;2020;48.682;9.024;2022-08-06T07:35:13;2.93;;;2.73;;
4011;SDS011;2020;48.682;9.024;2022-08-06T07:40:27;2.97;;;2.87;;
4011;SDS011;2020;48.682;9.024;2022-08-06T07:43:04;2.80;;;2.70;;
4011;SDS011;2020;48.682;9.024;2022-08-06T07:45:33;2.80;;;2.70;;
4011;SDS011;2020;48.682;9.024;2022-08-06T07:48:00;2.50;;;2.40;;
4011;SDS011;2020;48.682;9.024;2022-08-06T07:50:29;3.10;;;2.83;;
4011;SDS011;2020;48.682;9.024;2022-08-06T07:52:55;2.40;;;2.40;;
4011;SDS011;2020;48.682;9.024;2022-08-06T07:55:22;2.50;;;2.40;;
4011;SDS011;2020;48.682;9.024;2022-08-06T07:57:50;3.60;;;2.20;;
4011;SDS011;2020;48.682;9.024;2022-08-06T08:00:17;2.50;;;2.17;;
4011;SDS011;2020;48.682;9.024;2022-08-06T08:02:43;5.77;;;3.20;;
4011;SDS011;2020;48.682;9.024;2022-08-06T08:05:30;3.23;;;2.53;;
4011;SDS011;2020;48.682;9.024;2022-08-06T08:08:15;2.33;;;2.33;;
4011;SDS011;2020;48.682;9.024;2022-08-06T08:10:41;3.73;;;2.90;;
4011;SDS011;2020;48.682;9.024;2022-08-06T08:13:09;3.37;;;3.07;;
4011;SDS011;2020;48.682;9.024;2022-08-06T08:15:35;2.47;;;2.37;;
4011;SDS011;2020;48.682;9.024;2022-08-06T08:18:02;3.73;;;3.53;;
4011;SDS011;2020;48.682;9.024;2022-08-06T08:20:28;3.53;;;3.23;;
4011;SDS011;2020;48.682;9.024;2022-08-06T08:22:55;2.90;;;2.80;;
4011;SDS011;2020;48.682;9.024;2022-08-06T08:25:21;1.93;;;1.93;;
4011;SDS011;2020;48.682;9.024;2022-08-06T08:27:46;2.80;;;2.70;;
4011;SDS011;2020;48.682;9.024;2022-08-06T08:30:11;2.57;;;2.33;;
4011;SDS011;2020;48.682;9.024;2022-08-06T08:32:37;2.77;;;2.77;;
4011;SDS011;2020;48.682;9.024;2022-08-06T08:35:02;5.70;;;2.90;;
4011;SDS011;2020;48.682;9.024;2022-08-06T08:37:27;2.80;;;2.63;;
4011;SDS011;2020;48.682;9.024;2022-08-06T08:39:53;7.87;;;2.40;;
4011;SDS011;2020;48.682;9.024;2022-08-06T08:42:20;3.30;;;3.00;;
4011;SDS011;2020;48.682;9.024;2022-08-06T08:44:53;2.80;;;2.70;;
4011;SDS011;2020;48.682;9.024;2022-08-06T08:47:19;2.60;;;2.50;;
4011;SDS011;2020;48.682;9.024;2022-08-06T08:49:46;2.40;;;2.40;;
4011;SDS011;2020;48.682;9.024;2022-08-06T08:52:16;2.00;;;1.90;;
4011;SDS011;2020;48.682;9.024;2022-08-06T08:54:46;2.33;;;2.20;;
4011;SDS011;2020;48.682;9.024;2022-08-06T08:57:15;3.47;;;3.33;;
4011;SDS011;2020;48.682;9.024;2022-08-06T08:59:41;2.50;;;2.30;;
4011;SDS011;2020;48.682;9.024;2022-08-06T09:02:07;2.60;;;2.50;;
4011;SDS011;2020;48.682;9.024;2022-08-06T09:04:36;2.67;;;2.57;;
4011;SDS011;2020;48.682;9.024;2022-08-06T09:07:02;2.23;;;2.23;;
4011;SDS011;2020;48.682;9.024;2022-08-06T09:09:27;2.70;;;2.60;;
4011;SDS011;2020;48.682;9.024;2022-08-06T09:11:55;3.37;;;2.43;;
4011;SDS011;2020;48.682;9.024;2022-08-06T09:14:21;2.20;;;2.10;;
4011;SDS011;2020;48.682;9.024;2022-08-06T09:16:47;2.07;;;1.97;;
4011;SDS011;2020;48.682;9.024;2022-08-06T09:19:14;2.47;;;2.37;;
4011;SDS011;2020;48.682;9.024;2022-08-06T09:21:40;3.00;;;2.70;;
4011;SDS011;2020;48.682;9.024;2022-08-06T09:24:05;2.60;;;2.50;;
4011;SDS011;2020;48.682;9.024;2022-08-06T09:26:31;2.70;;;2.60;;
4011;SDS011;2020;48.682;9.024;2022-08-06T09:28:58;2.50;;;2.30;;
4011;SDS011;2020;48.682;9.024;2022-08-06T09:31:24;2.80;;;2.70;;
4011;SDS011;2020;48.682;9.024;2022-08-06T09:33:54;2.40;;;2.30;;
4011;SDS011;2020;48.682;9.024;2022-08-06T09:36:22;3.90;;;2.80;;
4011;SDS011;2020;48.682;9.024;2022-08-06T09:41:15;2.40;;;2.37;;
4011;SDS011;2020;48.682;9.024;2022-08-06T09:43:43;3.90;;;2.83;;
4011;SDS011;2020;48.682;9.024;2022-08-06T09:46:10;3.13;;;2.93;;
4011;SDS011;2020;48.682;9.024;2022-08-06T09:48:35;3.93;;;3.33;;
4011;SDS011;2020;48.682;9.024;2022-08-06T09:51:00;3.73;;;3.20;;
4011;SDS011;2020;48.682;9.024;2022-08-06T09:53:26;2.93;;;2.93;;
4011;SDS011;2020;48.682;9.024;2022-08-06T09:55:53;4.00;;;3.80;;
4011;SDS011;2020;48.682;9.024;2022-08-06T09:58:33;2.90;;;2.80;;
4011;SDS011;2020;48.682;9.024;2022-08-06T10:03:46;2.23;;;2.13;;
4011;SDS011;2020;48.682;9.024;2022-08-06T10:06:13;2.93;;;2.73;;
4011;SDS011;2020;48.682;9.024;2022-08-06T10:08:41;4.10;;;3.03;;
4011;SDS011;2020;48.682;9.024;2022-08-06T10:11:08;2.90;;;2.70;;
4011;SDS011;2020;48.682;9.024;2022-08-06T10:13:34;3.47;;;2.33;;
4011;SDS011;2020;48.682;9.024;2022-08-06T10:16:13;2.10;;;2.00;;
4011;SDS011;2020;48.682;9.024;2022-08-06T10:18:51;3.13;;;3.03;;
4011;SDS011;2020;48.682;9.024;2022-08-06T10:21:18;2.87;;;2.73;;
4011;SDS011;2020;48.682;9.024;2022-08-06T10:23:48;3.47;;;2.97;;
4011;SDS011;2020;48.682;9.024;2022-08-06T10:26:22;3.20;;;3.10;;
4011;SDS011;2020;48.682;9.024;2022-08-06T10:28:51;3.83;;;3.60;;
4011;SDS011;2020;48.682;9.024;2022-08-06T10:31:18;2.83;;;2.73;;
4011;SDS011;2020;48.682;9.024;2022-08-06T10:33:51;2.80;;;2.70;;
4011;SDS011;2020;48.682;9.024;2022-08-06T10:36:34;2.33;;;2.20;;
4011;SDS011;2020;48.682;9.024;2022-08-06T10:39:01;3.30;;;3.20;;
4011;SDS011;2020;48.682;9.024;2022-08-06T10:41:28;3.50;;;3.40;;
4011;SDS011;2020;48.682;9.024;2022-08-06T10:43:54;2.23;;;2.23;;
4011;SDS011;2020;48.682;9.024;2022-08-06T10:46:20;4.10;;;2.63;;
4011;SDS011;2020;48.682;9.024;2022-08-06T10:48:46;2.77;;;2.60;;
4011;SDS011;2020;48.682;9.024;2022-08-06T10:51:13;2.93;;;2.73;;
4011;SDS011;2020;48.682;9.024;2022-08-06T10:53:40;3.00;;;2.80;;
4011;SDS011;2020;48.682;9.024;2022-08-06T10:56:09;2.77;;;2.57;;
4011;SDS011;2020;48.682;9.024;2022-08-06T10:58:36;2.70;;;2.60;;
4011;SDS011;2020;48.682;9.024;2022-08-06T11:01:04;3.17;;;3.03;;
4011;SDS011;2020;48.682;9.024;2022-08-06T11:09:14;3.07;;;2.87;;
4011;SDS011;2020;48.682;9.024;2022-08-06T11:12:14;3.10;;;2.70;;
4011;SDS011;2020;48.682;9.024;2022-08-06T11:14:59;2.40;;;2.30;;
4011;SDS011;2020;48.682;9.024;2022-08-06T11:17:25;2.33;;;2.30;;
4011;SDS011;2020;48.682;9.024;2022-08-06T11:23:00;2.40;;;2.30;;
4011;SDS011;2020;48.682;9.024;2022-08-06T11:25:40;2.63;;;2.47;;
4011;SDS011;2020;48.682;9.024;2022-08-06T11:28:11;3.20;;;2.87;;
4011;SDS011;2020;48.682;9.024;2022-08-06T11:30:39;2.83;;;2.67;;
4011;SDS011;2020;48.682;9.024;2022-08-06T11:33:09;2.40;;;2.40;;
4011;SDS011;2020;48.682;9.024;2022-08-06T11:35:40;3.27;;;2.97;;
4011;SDS011;2020;48.682;9.024;2022-08-06T11:38:12;2.63;;;2.53;;
4011;SDS011;2020;48.682;9.024;2022-08-06T11:40:58;2.57;;;2.57;;
4011;SDS011;2020;48.682;9.024;2022-08-06T11:43:42;3.20;;;3.03;;
4011;SDS011;2020;48.682;9.024;2022-08-06T11:46:26;2.23;;;2.23;;
4011;SDS011;2020;48.682;9.024;2022-08-06T11:59:26;2.50;;;2.30;;
4011;SDS011;2020;48.682;9.024;2022-08-06T12:01:53;2.27;;;2.20;;
4011;SDS011;2020;48.682;9.024;2022-08-06T12:17:36;7.10;;;2.40;;
4011;SDS011;2020;48.682;9.024;2022-08-06T12:20:02;3.43;;;2.20;;
4011;SDS011;2020;48.682;9.024;2022-08-06T12:22:29;2.70;;;2.70;;
4011;SDS011;2020;48.682;9.024;2022-08-06T12:24:57;2.70;;;2.50;;
4011;SDS011;2020;48.682;9.024;2022-08-06T12:27:24;2.80;;;2.70;;
4011;SDS011;2020;48.682;9.024;2022-08-06T12:29:56;2.40;;;2.30;;
4011;SDS011;2020;48.682;9.024;2022-08-06T12:32:26;4.27;;;2.53;;
4011;SDS011;2020;48.682;9.024;2022-08-06T12:34:58;2.93;;;2.73;;
4011;SDS011;2020;48.682;9.024;2022-08-06T12:37:37;2.60;;;2.50;;
4011;SDS011;2020;48.682;9.024;2022-08-06T12:40:07;2.33;;;2.30;;
4011;SDS011;2020;48.682;9.024;2022-08-06T12:42:53;3.17;;;2.97;;
4011;SDS011;2020;48.682;9.024;2022-08-06T12:45:24;2.73;;;2.57;;
4011;SDS011;2020;48.682;9.024;2022-08-06T12:48:00;2.80;;;2.60;;
4011;SDS011;2020;48.682;9.024;2022-08-06T12:50:26;4.57;;;2.33;;
4011;SDS011;2020;48.682;9.024;2022-08-06T12:53:07;2.77;;;2.60;;
4011;SDS011;2020;48.682;9.024;2022-08-06T12:55:43;2.70;;;2.57;;
4011;SDS011;2020;48.682;9.024;2022-08-06T12:58:11;2.60;;;2.40;;
4011;SDS011;2020;48.682;9.024;2022-08-06T13:00:39;3.27;;;2.67;;
4011;SDS011;2020;48.682;9.024;2022-08-06T13:03:06;2.40;;;2.30;;
4011;SDS011;2020;48.682;9.024;2022-08-06T13:05:33;2.80;;;2.60;;
4011;SDS011;2020;48.682;9.024;2022-08-06T13:07:59;2.80;;;2.60;;
4011;SDS011;2020;48.682;9.024;2022-08-06T13:10:25;2.27;;;2.17;;
4011;SDS011;2020;48.682;9.024;2022-08-06T13:12:58;2.60;;;2.60;;
4011;SDS011;2020;48.682;9.024;2022-08-06T13:15:25;2.43;;;2.33;;
4011;SDS011;2020;48.682;9.024;2022-08-06T13:20:43;2.00;;;2.00;;
4011;SDS011;2020;48.682;9.024;2022-08-06T13:23:10;2.33;;;2.33;;
4011;SDS011;2020;48.682;9.024;2022-08-06T13:25:41;3.47;;;2.90;;
4011;SDS011;2020;48.682;9.024;2022-08-06T13:28:11;2.50;;;2.30;;
4011;SDS011;2020;48.682;9.024;2022-08-06T13:30:41;2.87;;;2.83;;
4011;SDS011;2020;48.682;9.024;2022-08-06T13:35:43;2.60;;;2.27;;
4011;SDS011;2020;48.682;9.024;2022-08-06T13:38:09;2.50;;;2.40;;
4011;SDS011;2020;48.682;9.024;2022-08-06T13:43:08;2.40;;;2.20;;
4011;SDS011;2020;48.682;9.024;2022-08-06T13:45:35;3.33;;;3.13;;
4011;SDS011;2020;48.682;9.024;2022-08-06T13:48:04;2.10;;;2.10;;
4011;SDS011;2020;48.682;9.024;2022-08-06T13:50:35;2.13;;;2.13;;
4011;SDS011;2020;48.682;9.024;2022-08-06T13:53:02;2.60;;;2.50;;
4011;SDS011;2020;48.682;9.024;2022-08-06T13:55:28;2.93;;;2.53;;
4011;SDS011;2020;48.682;9.024;2022-08-06T13:57:54;2.33;;;2.20;;
4011;SDS011;2020;48.682;9.024;2022-08-06T14:00:20;2.60;;;2.50;;
4011;SDS011;2020;48.682;9.024;2022-08-06T14:02:45;2.70;;;2.60;;
4011;SDS011;2020;48.682;9.024;2022-08-06T14:05:11;2.03;;;2.03;;
4011;SDS011;2020;48.682;9.024;2022-08-06T14:07:36;2.63;;;2.50;;
4011;SDS011;2020;48.682;9.024;2022-08-06T14:10:02;2.33;;;2.30;;
4011;SDS011;2020;48.682;9.024;2022-08-06T14:12:27;2.17;;;2.07;;
4011;SDS011;2020;48.682;9.024;2022-08-06T14:14:52;2.00;;;2.00;;
4011;SDS011;2020;48.682;9.024;2022-08-06T14:17:18;2.93;;;2.60;;
4011;SDS011;2020;48.682;9.024;2022-08-06T14:19:43;2.10;;;2.10;;
4011;SDS011;2020;48.682;9.024;2022-08-06T14:22:09;2.80;;;2.33;;
4011;SDS011;2020;48.682;9.024;2022-08-06T14:24:35;2.43;;;2.23;;
4011;SDS011;2020;48.682;9.024;2022-08-06T14:27:01;1.90;;;1.90;;
4011;SDS011;2020;48.682;9.024;2022-08-06T14:29:26;2.60;;;2.50;;
4011;SDS011;2020;48.682;9.024;2022-08-06T14:31:51;2.77;;;2.50;;
4011;SDS011;2020;48.682;9.024;2022-08-06T14:34:17;3.23;;;1.67;;
4011;SDS011;2020;48.682;9.024;2022-08-06T14:36:42;2.47;;;2.37;;
4011;SDS011;2020;48.682;9.024;2022-08-06T14:39:08;2.13;;;2.03;;
4011;SDS011;2020;48.682;9.024;2022-08-06T14:41:36;2.20;;;2.10;;
4011;SDS011;2020;48.682;9.024;2022-08-06T14:44:20;2.40;;;2.30;;
4011;SDS011;2020;48.682;9.024;2022-08-06T14:47:04;2.37;;;2.20;;
4011;SDS011;2020;48.682;9.024;2022-08-06T14:49:29;1.97;;;1.87;;
4011;SDS011;2020;48.682;9.024;2022-08-06T14:51:55;1.80;;;1.80;;
4011;SDS011;2020;48.682;9.024;2022-08-06T14:54:20;2.20;;;2.10;;
4011;SDS011;2020;48.682;9.024;2022-08-06T14:56:45;2.60;;;2.40;;
4011;SDS011;2020;48.682;9.024;2022-08-06T14:59:12;2.50;;;2.50;;
4011;SDS011;2020;48.682;9.024;2022-08-06T15:01:37;1.70;;;1.70;;
4011;SDS011;2020;48.682;9.024;2022-08-06T15:04:02;2.80;;;2.57;;
4011;SDS011;2020;48.682;9.024;2022-08-06T15:06:28;2.13;;;1.83;;
4011;SDS011;2020;48.682;9.024;2022-08-06T15:08:53;3.03;;;2.20;;
4011;SDS011;2020;48.682;9.024;2022-08-06T15:11:19;1.90;;;1.90;;
4011;SDS011;2020;48.682;9.024;2022-08-06T15:13:44;2.00;;;1.93;;
4011;SDS011;2020;48.682;9.024;2022-08-06T15:16:10;1.80;;;1.70;;
4011;SDS011;2020;48.682;9.024;2022-08-06T15:18:35;2.10;;;2.00;;
4011;SDS011;2020;48.682;9.024;2022-08-06T15:21:01;3.53;;;2.10;;
4011;SDS011;2020;48.682;9.024;2022-08-06T15:23:27;2.37;;;2.00;;
4011;SDS011;2020;48.682;9.024;2022-08-06T15:25:52;2.40;;;2.13;;
4011;SDS011;2020;48.682;9.024;2022-08-06T15:28:17;2.70;;;2.00;;
4011;SDS011;2020;48.682;9.024;2022-08-06T15:30:43;1.80;;;1.70;;
4011;SDS011;2020;48.682;9.024;2022-08-06T15:33:08;2.30;;;2.20;;
4011;SDS011;2020;48.682;9.024;2022-08-06T15:35:33;1.67;;;1.60;;
4011;SDS011;2020;48.682;9.024;2022-08-06T15:37:59;1.37;;;1.37;;
4011;SDS011;2020;48.682;9.024;2022-08-06T15:40:24;1.70;;;1.60;;
4011;SDS011;2020;48.682;9.024;2022-08-06T15:42:49;2.13;;;2.13;;
4011;SDS011;2020;48.682;9.024;2022-08-06T15:45:15;2.17;;;1.80;;
4011;SDS011;2020;48.682;9.024;2022-08-06T15:47:40;1.90;;;1.90;;
4011;SDS011;2020;48.682;9.024;2022-08-06T15:50:05;4.70;;;1.83;;
4011;SDS011;2020;48.682;9.024;2022-08-06T15:52:31;2.17;;;2.07;;
4011;SDS011;2020;48.682;9.024;2022-08-06T15:54:57;1.83;;;1.77;;
4011;SDS011;2020;48.682;9.024;2022-08-06T15:57:22;1.97;;;1.97;;
4011;SDS011;2020;48.682;9.024;2022-08-06T15:59:48;2.23;;;1.90;;
4011;SDS011;2020;48.682;9.024;2022-08-06T16:02:14;2.07;;;1.97;;
4011;SDS011;2020;48.682;9.024;2022-08-06T16:04:39;4.73;;;1.63;;
4011;SDS011;2020;48.682;9.024;2022-08-06T16:07:05;4.10;;;1.67;;
4011;SDS011;2020;48.682;9.024;2022-08-06T16:09:32;1.80;;;1.70;;
4011;SDS011;2020;48.682;9.024;2022-08-06T16:11:58;1.33;;;1.33;;
4011;SDS011;2020;48.682;9.024;2022-08-06T16:14:24;2.00;;;1.90;;
4011;SDS011;2020;48.682;9.024;2022-08-06T16:16:49;2.00;;;1.90;;
4011;SDS011;2020;48.682;9.024;2022-08-06T16:19:14;2.50;;;1.70;;
4011;SDS011;2020;48.682;9.024;2022-08-06T16:21:39;1.80;;;1.70;;
4011;SDS011;2020;48.682;9.024;2022-08-06T16:24:05;2.13;;;2.00;;
4011;SDS011;2020;48.682;9.024;2022-08-06T16:26:30;1.60;;;1.60;;
4011;SDS011;2020;48.682;9.024;2022-08-06T16:28:55;2.43;;;2.33;;
4011;SDS011;2020;48.682;9.024;2022-08-06T16:31:21;1.50;;;1.40;;
4011;SDS011;2020;48.682;9.024;2022-08-06T16:33:46;1.67;;;1.57;;
4011;SDS011;2020;48.682;9.024;2022-08-06T16:36:11;1.90;;;1.80;;
4011;SDS011;2020;48.682;9.024;2022-08-06T16:38:37;1.60;;;1.50;;